Time;durP1;ratioP1;P1;durP2;ratioP2;P2;SDS_P1;SDS_P2;PMS_P1;PMS_P2;Temp;Humidity;BMP_temperature;BMP_pressure;BME280_temperature;BME280_humidity;BME280_pressure;Samples;Min_cycle;Max_cycle;Signal;HPM_P1;HPM_P2
2021/01/02 00:00:34;;;;;;;;;;;;;;;25.93;31.30;101300.44;5117100;28;811;-40
2021/01/02 00:03:20;;;;;;;;;;;;;;;26.67;29.98;101293.63;5118127;28;1976;-43
2021/01/02 00:05:51;;;;;;;;;;;;;;;26.36;30.71;101305.03;5117015;27;1072;-39
2021/01/02 00:08:19;;;;;;;;;;;;;;;26.53;30.11;101312.13;5116755;28;823;-39
2021/01/02 00:10:51;;;;;;;;;;;;;;;26.22;30.51;101317.25;5132401;27;1199;-40
2021/01/02 00:13:37;;;;;;;;;;;;;;;26.00;31.06;101319.50;5137994;27;874;-39
2021/01/02 00:16:08;;;;;;;;;;;;;;;25.34;32.69;101317.25;5136662;27;796;-38
2021/01/02 00:18:37;;;;;;;;;;;;;;;26.47;30.34;101317.34;5137883;27;1133;-39
2021/01/02 00:21:14;;;;;;;;;;;;;;;26.33;30.57;101324.22;5128320;27;1044;-41
2021/01/02 00:23:43;;;;;;;;;;;;;;;26.18;30.76;101330.19;5117688;28;1921;-46
2021/01/02 00:26:27;;;;;;;;;;;;;;;25.86;31.42;101326.38;5117596;28;834;-37
2021/01/02 00:28:52;;;;;;;;;;;;;;;26.26;30.71;101330.22;5117214;28;743;-40
2021/01/02 00:31:25;;;;;;;;;;;;;;;26.49;30.37;101334.22;5116416;28;826;-39
2021/01/02 00:34:04;;;;;;;;;;;;;;;26.51;30.24;101327.63;5116084;28;759;-39
2021/01/02 00:36:39;;;;;;;;;;;;;;;26.24;30.67;101336.81;5128540;27;954;-41
2021/01/02 00:39:05;;;;;;;;;;;;;;;25.76;31.45;101331.84;5138356;27;756;-40
2021/01/02 00:41:30;;;;;;;;;;;;;;;26.34;30.67;101329.44;5136496;27;802;-39
2021/01/02 00:43:56;;;;;;;;;;;;;;;26.38;30.47;101335.34;5136440;27;1975;-43
2021/01/02 00:46:21;;;;;;;;;;;;;;;25.73;31.56;101335.72;5137841;27;790;-37
2021/01/02 00:48:46;;;;;;;;;;;;;;;25.71;31.81;101331.50;5137735;27;988;-41
2021/01/02 00:51:12;;;;;;;;;;;;;;;26.01;31.01;101340.06;5126401;27;960;-38
2021/01/02 00:53:47;;;;;;;;;;;;;;;25.99;31.13;101342.91;5115484;28;975;-37
2021/01/02 00:56:12;;;;;;;;;;;;;;;25.25;32.69;101338.72;5117048;28;875;-40
2021/01/02 00:59:07;;;;;;;;;;;;;;;26.07;31.09;101338.59;5117101;28;806;-40
2021/01/02 01:01:36;;;;;;;;;;;;;;;26.17;30.65;101339.31;5107956;28;1715;-38
2021/01/02 01:04:01;;;;;;;;;;;;;;;26.06;30.95;101332.34;5117473;28;1976;-34
2021/01/02 01:06:27;;;;;;;;;;;;;;;25.87;31.47;101331.59;5116280;27;1034;-38
2021/01/02 01:08:53;;;;;;;;;;;;;;;26.57;30.10;101336.94;5115936;28;759;-41
2021/01/02 01:11:18;;;;;;;;;;;;;;;26.27;30.66;101337.34;5137404;28;1194;-38
2021/01/02 01:13:43;;;;;;;;;;;;;;;26.33;30.57;101340.38;5135875;28;842;-38
2021/01/02 01:16:08;;;;;;;;;;;;;;;26.15;30.69;101350.25;5137626;27;795;-42
2021/01/02 01:18:37;;;;;;;;;;;;;;;25.65;31.72;101344.59;5137434;27;1078;-40
2021/01/02 01:21:03;;;;;;;;;;;;;;;26.23;30.72;101359.38;5127470;27;1004;-41
2021/01/02 01:23:30;;;;;;;;;;;;;;;26.40;30.34;101358.47;5128283;27;1917;-39
2021/01/02 01:26:14;;;;;;;;;;;;;;;26.37;30.47;101360.66;5137399;27;870;-39
2021/01/02 01:28:42;;;;;;;;;;;;;;;26.19;30.62;101364.28;5136988;28;736;-39
2021/01/02 01:31:07;;;;;;;;;;;;;;;25.49;32.06;101369.53;5137553;27;786;-39
2021/01/02 01:33:32;;;;;;;;;;;;;;;25.73;31.70;101370.75;5136034;28;1269;-40
2021/01/02 01:36:01;;;;;;;;;;;;;;;26.05;31.21;101371.09;5134533;27;942;-38
2021/01/02 01:38:27;;;;;;;;;;;;;;;26.46;30.28;101373.16;5137560;27;854;-41
2021/01/02 01:41:12;;;;;;;;;;;;;;;26.22;30.54;101363.09;5140308;27;735;-39
2021/01/02 01:43:59;;;;;;;;;;;;;;;25.90;31.04;101374.41;5140867;27;1914;-41
2021/01/02 01:46:24;;;;;;;;;;;;;;;25.85;31.59;101367.78;5141774;27;751;-38
2021/01/02 01:48:52;;;;;;;;;;;;;;;26.03;31.11;101382.03;5141376;27;1067;-43
2021/01/02 01:51:27;;;;;;;;;;;;;;;26.05;31.13;101384.56;5128872;27;940;-43
2021/01/02 01:53:55;;;;;;;;;;;;;;;26.11;30.79;101389.31;5120706;28;759;-40
2021/01/02 01:56:38;;;;;;;;;;;;;;;26.01;30.92;101393.97;5120577;28;748;-40
2021/01/02 01:59:15;;;;;;;;;;;;;;;26.00;31.18;101390.44;5119905;28;985;-39
2021/01/02 02:01:40;;;;;;;;;;;;;;;26.48;30.19;101387.31;5120527;28;726;-40
2021/01/02 02:04:12;;;;;;;;;;;;;;;26.31;30.55;101386.38;5119180;28;1905;-44
2021/01/02 02:06:37;;;;;;;;;;;;;;;26.28;30.76;101394.78;5133479;27;941;-39
2021/01/02 02:09:03;;;;;;;;;;;;;;;26.07;30.84;101392.50;5141320;27;1078;-40
2021/01/02 02:11:37;;;;;;;;;;;;;;;25.94;31.29;101390.25;5140368;27;877;-39
2021/01/02 02:14:15;;;;;;;;;;;;;;;26.36;30.57;101394.84;5140359;27;892;-38
2021/01/02 02:16:44;;;;;;;;;;;;;;;26.64;30.10;101388.41;5140814;27;793;-46
2021/01/02 02:19:13;;;;;;;;;;;;;;;26.69;29.94;101387.91;5140199;27;1108;-35
2021/01/02 02:21:38;;;;;;;;;;;;;;;26.27;30.52;101393.13;5129839;27;925;-39
2021/01/02 02:24:04;;;;;;;;;;;;;;;26.07;30.81;101387.13;5139266;27;1960;-42
2021/01/02 02:26:30;;;;;;;;;;;;;;;25.46;32.16;101386.00;5140445;27;747;-37
2021/01/02 02:29:08;;;;;;;;;;;;;;;26.33;30.47;101391.63;5139683;27;821;-38
2021/01/02 02:31:33;;;;;;;;;;;;;;;26.39;30.46;101386.44;5140163;27;807;-37
2021/01/02 02:33:59;;;;;;;;;;;;;;;26.15;30.69;101398.78;5139370;27;925;-37
2021/01/02 02:36:25;;;;;;;;;;;;;;;25.97;30.98;101388.09;5127387;27;940;-36
2021/01/02 02:38:53;;;;;;;;;;;;;;;25.66;31.79;101385.84;5119810;28;822;-35
2021/01/02 02:41:19;;;;;;;;;;;;;;;26.30;30.61;101384.69;5122371;27;837;-36
2021/01/02 02:43:46;;;;;;;;;;;;;;;26.26;30.66;101377.91;5138958;27;1964;-35
2021/01/02 02:46:11;;;;;;;;;;;;;;;26.31;30.36;101386.38;5139056;27;806;-35
2021/01/02 02:48:37;;;;;;;;;;;;;;;26.11;30.67;101378.53;5140314;27;719;-36
2021/01/02 02:51:03;;;;;;;;;;;;;;;25.92;31.10;101377.75;5137566;27;997;-35
2021/01/02 02:53:28;;;;;;;;;;;;;;;26.39;30.19;101375.66;5140207;27;838;-36
2021/01/02 02:55:53;;;;;;;;;;;;;;;26.64;29.79;101388.41;5138925;27;801;-35
2021/01/02 02:58:19;;;;;;;;;;;;;;;26.21;30.49;101375.72;5139899;27;799;-35
2021/01/02 03:00:44;;;;;;;;;;;;;;;26.07;30.67;101376.31;5139921;27;806;-35
2021/01/02 03:03:09;;;;;;;;;;;;;;;25.97;31.20;101374.59;5139883;27;1958;-40
2021/01/02 03:05:36;;;;;;;;;;;;;;;26.36;30.52;101375.97;5133787;27;1016;-35
2021/01/02 03:08:01;;;;;;;;;;;;;;;26.57;29.91;101379.25;5118371;28;804;-36
2021/01/02 03:10:26;;;;;;;;;;;;;;;26.14;30.85;101382.78;5130913;27;1127;-37
2021/01/02 03:12:52;;;;;;;;;;;;;;;26.11;30.65;101370.44;5139986;27;798;-37
2021/01/02 03:15:18;;;;;;;;;;;;;;;25.97;30.82;101379.13;5139751;27;746;-36
2021/01/02 03:17:43;;;;;;;;;;;;;;;25.20;32.49;101378.72;5139677;27;858;-35
2021/01/02 03:20:09;;;;;;;;;;;;;;;25.49;31.94;101377.59;5138148;27;1139;-36
2021/01/02 03:22:35;;;;;;;;;;;;;;;26.16;30.82;101370.81;5139718;27;1917;-40
2021/01/02 03:25:00;;;;;;;;;;;;;;;25.49;31.95;101379.47;5139615;27;774;-35
2021/01/02 03:27:25;;;;;;;;;;;;;;;25.33;32.26;101378.34;5139040;27;771;-35
2021/01/02 03:29:51;;;;;;;;;;;;;;;25.97;30.96;101384.53;5138936;27;1222;-35
2021/01/02 03:32:16;;;;;;;;;;;;;;;26.01;30.77;101378.66;5139726;27;787;-34
2021/01/02 03:34:41;;;;;;;;;;;;;;;25.63;31.49;101378.06;5139179;27;795;-39
2021/01/02 03:37:07;;;;;;;;;;;;;;;25.22;32.61;101375.88;5120469;27;960;-35
2021/01/02 03:39:33;;;;;;;;;;;;;;;26.18;30.63;101381.44;5118539;28;862;-39
2021/01/02 03:41:58;;;;;;;;;;;;;;;26.24;30.62;101382.66;5118370;28;786;-36
2021/01/02 03:44:23;;;;;;;;;;;;;;;26.04;30.73;101386.41;5118501;27;1897;-35
2021/01/02 03:46:48;;;;;;;;;;;;;;;25.83;31.19;101388.66;5118535;28;751;-36
2021/01/02 03:49:14;;;;;;;;;;;;;;;26.26;30.58;101394.97;5118244;28;818;-37
2021/01/02 03:51:39;;;;;;;;;;;;;;;26.30;30.35;101395.47;5117839;27;945;-36
2021/01/02 03:54:04;;;;;;;;;;;;;;;25.84;31.25;101398.44;5118478;28;842;-39
2021/01/02 03:56:29;;;;;;;;;;;;;;;26.07;30.91;101408.69;5118167;28;747;-36
2021/01/02 03:58:55;;;;;;;;;;;;;;;26.10;30.50;101409.22;5118606;28;833;-36
2021/01/02 04:01:20;;;;;;;;;;;;;;;25.94;31.00;101407.28;5118126;28;786;-36
2021/01/02 04:03:45;;;;;;;;;;;;;;;25.99;31.05;101406.78;5117498;27;1964;-36
2021/01/02 04:06:10;;;;;;;;;;;;;;;25.95;30.97;101411.66;5117420;27;1435;-35
2021/01/02 04:08:36;;;;;;;;;;;;;;;26.39;30.24;101412.59;5118138;28;756;-39
2021/01/02 04:11:01;;;;;;;;;;;;;;;26.50;29.92;101414.13;5135786;27;1122;-37
2021/01/02 04:13:26;;;;;;;;;;;;;;;26.37;29.99;101410.06;5138135;27;1406;-40
2021/01/02 04:15:52;;;;;;;;;;;;;;;25.97;29.78;101419.56;5122909;27;850;-35
2021/01/02 04:18:17;;;;;;;;;;;;;;;25.05;32.37;101416.09;5117759;28;778;-35
2021/01/02 04:20:43;;;;;;;;;;;;;;;26.16;30.65;101419.34;5116771;27;1089;-35
2021/01/02 04:23:08;;;;;;;;;;;;;;;26.53;29.83;101417.34;5117929;28;1969;-36
2021/01/02 04:25:33;;;;;;;;;;;;;;;26.43;30.15;101423.88;5117704;28;849;-35
2021/01/02 04:27:59;;;;;;;;;;;;;;;26.07;30.71;101424.84;5117645;28;742;-35
2021/01/02 04:30:24;;;;;;;;;;;;;;;25.90;30.91;101439.09;5117792;28;836;-36
2021/01/02 04:32:49;;;;;;;;;;;;;;;24.89;32.79;101439.13;5117688;27;748;-35
2021/01/02 04:35:15;;;;;;;;;;;;;;;26.13;30.70;101433.16;5117905;27;972;-35
2021/01/02 04:37:41;;;;;;;;;;;;;;;26.14;30.60;101440.22;5117773;28;861;-42
2021/01/02 04:40:07;;;;;;;;;;;;;;;26.12;30.48;101441.41;5117331;28;794;-36
2021/01/02 04:42:33;;;;;;;;;;;;;;;26.25;30.36;101441.81;5117662;28;1905;-36
2021/01/02 04:44:58;;;;;;;;;;;;;;;26.02;30.81;101438.81;5116052;28;828;-35
2021/01/02 04:47:23;;;;;;;;;;;;;;;25.65;31.53;101438.91;5116207;28;709;-35
2021/01/02 04:49:49;;;;;;;;;;;;;;;24.09;25.44;101435.91;5115550;28;1206;-40
2021/01/02 04:52:15;;;;;;;;;;;;;;;22.70;24.31;101424.28;5135828;27;934;-40
2021/01/02 04:54:40;;;;;;;;;;;;;;;21.75;24.34;101422.47;5138685;27;774;-39
2021/01/02 04:57:07;;;;;;;;;;;;;;;23.09;23.19;101430.69;5136105;27;778;-42
2021/01/02 04:59:32;;;;;;;;;;;;;;;23.93;21.34;101428.47;5136422;27;994;-36
2021/01/02 05:01:58;;;;;;;;;;;;;;;24.49;21.04;101434.97;5137057;27;786;-36
2021/01/02 05:04:23;;;;;;;;;;;;;;;23.98;23.90;101433.38;5137282;27;1898;-41
2021/01/02 05:06:48;;;;;;;;;;;;;;;24.16;26.14;101443.38;5121607;27;1004;-39
2021/01/02 05:09:13;;;;;;;;;;;;;;;24.53;25.87;101450.66;5119698;28;1118;-39
2021/01/02 05:11:39;;;;;;;;;;;;;;;24.89;25.74;101451.75;5137249;27;775;-40
2021/01/02 05:14:04;;;;;;;;;;;;;;;24.93;25.52;101456.72;5137883;27;739;-39
2021/01/02 05:16:37;;;;;;;;;;;;;;;25.21;25.29;101453.13;5142048;27;755;-40
2021/01/02 05:19:06;;;;;;;;;;;;;;;25.52;25.41;101455.44;5141389;27;1199;-35
2021/01/02 05:21:32;;;;;;;;;;;;;;;25.70;25.27;101465.38;5141697;27;952;-40
2021/01/02 05:24:03;;;;;;;;;;;;;;;25.62;25.46;101465.28;5141465;27;1913;-37
2021/01/02 05:26:29;;;;;;;;;;;;;;;25.67;25.59;101468.38;5141557;27;807;-36
2021/01/02 05:29:07;;;;;;;;;;;;;;;25.92;25.35;101471.28;5141579;27;885;-35
2021/01/02 05:31:33;;;;;;;;;;;;;;;26.16;25.34;101480.50;5141642;27;786;-37
2021/01/02 05:34:04;;;;;;;;;;;;;;;26.24;25.35;101482.44;5140447;27;750;-37
2021/01/02 05:36:30;;;;;;;;;;;;;;;26.12;25.52;101489.94;5140387;27;952;-41
2021/01/02 05:38:55;;;;;;;;;;;;;;;26.07;25.83;101492.25;5141642;27;815;-37
2021/01/02 05:41:20;;;;;;;;;;;;;;;26.40;25.44;101493.34;5141214;27;815;-41
2021/01/02 05:43:45;;;;;;;;;;;;;;;26.33;25.58;101499.53;5141583;27;2041;-38
2021/01/02 05:46:12;;;;;;;;;;;;;;;26.52;25.59;101498.47;5141485;27;805;-41
2021/01/02 05:48:37;;;;;;;;;;;;;;;26.34;25.62;101502.06;5140887;27;850;-37
2021/01/02 05:51:02;;;;;;;;;;;;;;;26.70;25.47;101506.47;5132018;27;988;-33
2021/01/02 05:53:31;;;;;;;;;;;;;;;26.60;25.56;101505.75;5120777;28;759;-37
2021/01/02 05:55:59;;;;;;;;;;;;;;;26.37;26.03;101506.31;5120787;28;802;-35
2021/01/02 05:58:25;;;;;;;;;;;;;;;26.23;26.20;101513.09;5120789;28;862;-41
2021/01/02 06:00:50;;;;;;;;;;;;;;;26.79;25.73;101515.47;5120809;28;734;-35
2021/01/02 06:03:25;;;;;;;;;;;;;;;26.90;25.77;101519.72;5118984;28;1902;-39
2021/01/02 06:05:59;;;;;;;;;;;;;;;26.83;25.91;101522.22;5120180;27;945;-41
2021/01/02 06:08:43;;;;;;;;;;;;;;;26.40;26.50;101524.88;5120073;28;806;-42
2021/01/02 06:11:13;;;;;;;;;;;;;;;26.42;27.04;101528.25;5139502;27;1063;-39
2021/01/02 06:13:39;;;;;;;;;;;;;;;26.86;26.38;101531.88;5141070;27;735;-42
2021/01/02 06:16:05;;;;;;;;;;;;;;;25.94;27.92;101525.88;5140822;27;798;-40
2021/01/02 06:18:32;;;;;;;;;;;;;;;26.41;27.34;101530.09;5138146;27;1055;-37
2021/01/02 06:20:57;;;;;;;;;;;;;;;26.41;27.44;101530.09;5140408;27;929;-34
2021/01/02 06:23:22;;;;;;;;;;;;;;;26.64;27.14;101528.72;5138985;27;1971;-32
2021/01/02 06:25:48;;;;;;;;;;;;;;;26.86;26.39;101531.88;5140400;27;738;-40
2021/01/02 06:28:14;;;;;;;;;;;;;;;26.88;26.56;101538.78;5140938;27;762;-40
2021/01/02 06:30:39;;;;;;;;;;;;;;;26.94;26.33;101541.84;5138391;27;861;-33
2021/01/02 06:33:04;;;;;;;;;;;;;;;26.23;27.57;101545.44;5139136;27;854;-37
2021/01/02 06:35:32;;;;;;;;;;;;;;;26.39;27.65;101542.06;5138072;27;866;-44
2021/01/02 06:37:58;;;;;;;;;;;;;;;26.82;26.93;101534.03;5138654;27;1343;-35
2021/01/02 06:40:23;;;;;;;;;;;;;;;26.27;27.99;101546.84;5140114;27;795;-45
2021/01/02 06:42:54;;;;;;;;;;;;;;;26.74;27.40;101542.09;5140384;27;1905;-41
2021/01/02 06:45:34;;;;;;;;;;;;;;;26.99;26.58;101547.59;5140207;27;818;-40
2021/01/02 06:48:10;;;;;;;;;;;;;;;26.93;26.60;101553.63;5139962;27;858;-38
2021/01/02 06:50:35;;;;;;;;;;;;;;;26.60;27.60;101552.47;5138222;27;1528;-39
2021/01/02 06:53:16;;;;;;;;;;;;;;;27.24;26.62;101553.13;5140407;27;775;-33
2021/01/02 06:55:42;;;;;;;;;;;;;;;27.11;27.07;101550.88;5140254;27;782;-32
2021/01/02 06:58:16;;;;;;;;;;;;;;;26.93;27.17;101554.47;5139914;27;808;-35
2021/01/02 07:00:42;;;;;;;;;;;;;;;26.64;27.88;101561.09;5139678;27;731;-41
2021/01/02 07:03:08;;;;;;;;;;;;;;;26.63;27.74;101562.94;5139772;27;1902;-35
2021/01/02 07:05:41;;;;;;;;;;;;;;;26.65;27.64;101565.47;5134016;27;977;-35
2021/01/02 07:08:06;;;;;;;;;;;;;;;26.98;27.10;101571.03;5119002;28;831;-32
2021/01/02 07:10:32;;;;;;;;;;;;;;;27.05;26.98;101575.81;5131387;27;1136;-40
2021/01/02 07:13:09;;;;;;;;;;;;;;;26.28;28.46;101575.50;5139565;27;754;-33
2021/01/02 07:15:34;;;;;;;;;;;;;;;26.31;28.51;101575.19;5139541;27;735;-43
2021/01/02 07:18:18;;;;;;;;;;;;;;;26.76;27.88;101577.84;5139909;27;862;-35
2021/01/02 07:20:43;;;;;;;;;;;;;;;26.69;28.17;101584.91;5131902;27;1185;-43
2021/01/02 07:23:09;;;;;;;;;;;;;;;26.64;28.22;101588.09;5118682;28;1914;-36
2021/01/02 07:25:34;;;;;;;;;;;;;;;27.19;27.15;101582.47;5119017;28;751;-37
2021/01/02 07:27:59;;;;;;;;;;;;;;;27.11;27.48;101588.69;5118649;28;842;-37
2021/01/02 07:30:27;;;;;;;;;;;;;;;26.72;28.01;101585.44;5122810;27;1530;-28
2021/01/02 07:32:52;;;;;;;;;;;;;;;27.34;26.82;101591.63;5138780;27;865;-28
2021/01/02 07:35:17;;;;;;;;;;;;;;;27.19;26.85;101580.63;5135945;27;1007;-27
2021/01/02 07:37:43;;;;;;;;;;;;;;;27.23;26.11;101587.38;5117620;28;877;-28
2021/01/02 07:40:09;;;;;;;;;;;;;;;27.24;26.27;101585.53;5118786;28;718;-30
2021/01/02 07:42:35;;;;;;;;;;;;;;;27.50;25.37;101589.97;5118567;28;834;-30
2021/01/02 07:45:02;;;;;;;;;;;;;;;27.84;25.23;101594.44;5118636;28;1906;-28
2021/01/02 07:47:28;;;;;;;;;;;;;;;28.18;24.39;101603.44;5118144;28;835;-27
2021/01/02 07:50:00;;;;;;;;;;;;;;;28.24;23.39;101600.03;5118047;28;778;-27
2021/01/02 07:52:25;;;;;;;;;;;;;;;28.06;24.21;101596.69;5118017;27;906;-28
2021/01/02 07:54:51;;;;;;;;;;;;;;;27.87;25.17;101596.00;5118559;28;751;-27
2021/01/02 07:57:21;;;;;;;;;;;;;;;28.38;24.37;101592.28;5117950;28;823;-28
2021/01/02 07:59:46;;;;;;;;;;;;;;;28.54;23.43;101599.56;5116520;28;1250;-27
2021/01/02 08:02:11;;;;;;;;;;;;;;;28.54;23.01;101606.81;5118191;28;754;-28
2021/01/02 08:04:37;;;;;;;;;;;;;;;28.53;23.30;101607.84;5118458;28;1960;-37
2021/01/02 08:07:03;;;;;;;;;;;;;;;27.23;26.13;101606.28;5118077;27;997;-38
2021/01/02 08:09:29;;;;;;;;;;;;;;;26.71;27.06;101605.31;5122332;27;1153;-38
2021/01/02 08:11:58;;;;;;;;;;;;;;;26.83;26.94;101600.50;5138565;27;778;-38
2021/01/02 08:14:24;;;;;;;;;;;;;;;27.26;26.60;101597.84;5138908;27;749;-27
2021/01/02 08:17:08;;;;;;;;;;;;;;;27.16;26.34;101596.31;5138262;27;767;-38
2021/01/02 08:19:37;;;;;;;;;;;;;;;27.97;25.41;101604.78;5138286;27;1235;-38
2021/01/02 08:22:03;;;;;;;;;;;;;;;27.74;25.94;101607.31;5119945;27;1031;-28
2021/01/02 08:24:29;;;;;;;;;;;;;;;27.67;26.48;101609.78;5117891;28;1910;-38
2021/01/02 08:26:55;;;;;;;;;;;;;;;27.70;27.37;101614.03;5117814;28;1057;-27
2021/01/02 08:29:20;;;;;;;;;;;;;;;28.07;26.75;101618.16;5117629;27;786;-44
2021/01/02 08:31:47;;;;;;;;;;;;;;;27.66;27.48;101612.66;5116398;28;795;-34
2021/01/02 08:34:13;;;;;;;;;;;;;;;26.90;28.00;101619.59;5116559;28;806;-45
2021/01/02 08:36:42;;;;;;;;;;;;;;;27.78;27.17;101621.34;5117037;27;1056;-45
2021/01/02 08:39:07;;;;;;;;;;;;;;;28.30;26.56;101619.31;5117495;28;850;-36
2021/01/02 08:41:32;;;;;;;;;;;;;;;28.54;26.23;101626.63;5117623;28;837;-42
2021/01/02 08:43:58;;;;;;;;;;;;;;;28.68;25.97;101624.19;5117478;28;1994;-46
2021/01/02 08:46:25;;;;;;;;;;;;;;;28.67;26.25;101623.38;5117080;28;845;-35
2021/01/02 08:48:51;;;;;;;;;;;;;;;28.68;26.52;101629.63;5117702;28;894;-41
2021/01/02 08:51:20;;;;;;;;;;;;;;;28.55;27.01;101628.28;5127729;27;946;-38
2021/01/02 08:53:45;;;;;;;;;;;;;;;28.61;27.03;101632.19;5137253;27;691;-34
2021/01/02 08:56:29;;;;;;;;;;;;;;;28.63;27.16;101626.59;5137936;27;755;-43
2021/01/02 08:58:57;;;;;;;;;;;;;;;28.57;27.57;101622.72;5137891;27;842;-44
2021/01/02 09:01:22;;;;;;;;;;;;;;;28.57;27.53;101628.13;5137474;27;794;-34
2021/01/02 09:03:47;;;;;;;;;;;;;;;28.56;27.87;101623.75;5137637;27;1992;-48
2021/01/02 09:06:19;;;;;;;;;;;;;;;28.65;27.52;101625.41;5126766;27;1003;-35
2021/01/02 09:08:45;;;;;;;;;;;;;;;28.62;27.86;101616.78;5116831;28;830;-36
2021/01/02 09:11:10;;;;;;;;;;;;;;;28.57;28.03;101615.44;5136022;27;1099;-34
2021/01/02 09:13:35;;;;;;;;;;;;;;;28.61;28.28;101613.25;5137760;27;778;-34
2021/01/02 09:16:01;;;;;;;;;;;;;;;28.68;28.05;101614.22;5137424;27;842;-34
2021/01/02 09:18:30;;;;;;;;;;;;;;;28.71;28.50;101613.88;5137672;27;1365;-37
2021/01/02 09:20:55;;;;;;;;;;;;;;;28.68;28.90;101608.81;5128340;27;1008;-35
2021/01/02 09:23:30;;;;;;;;;;;;;;;28.65;29.13;101606.44;5116723;28;1917;-34
2021/01/02 09:25:55;;;;;;;;;;;;;;;28.70;29.24;101611.34;5117287;28;771;-42
2021/01/02 09:28:20;;;;;;;;;;;;;;;28.53;29.76;101611.38;5117352;28;841;-40
2021/01/02 09:30:46;;;;;;;;;;;;;;;28.60;29.70;101601.56;5116691;28;830;-35
2021/01/02 09:33:11;;;;;;;;;;;;;;;28.60;29.37;101598.84;5117061;28;813;-40
2021/01/02 09:35:37;;;;;;;;;;;;;;;28.27;30.10;101598.88;5116647;27;1020;-37
2021/01/02 09:38:03;;;;;;;;;;;;;;;28.89;29.01;101595.72;5116716;28;822;-35
2021/01/02 09:40:28;;;;;;;;;;;;;;;29.15;28.54;101590.06;5116971;28;789;-34
2021/01/02 09:42:53;;;;;;;;;;;;;;;29.35;27.89;101584.19;5116892;28;1968;-35
2021/01/02 09:45:19;;;;;;;;;;;;;;;29.10;28.25;101581.63;5116230;28;920;-35
2021/01/02 09:47:44;;;;;;;;;;;;;;;28.82;29.23;101584.75;5117202;28;797;-35
2021/01/02 09:50:09;;;;;;;;;;;;;;;28.93;28.51;101583.50;5117843;27;1008;-38
2021/01/02 09:52:35;;;;;;;;;;;;;;;28.91;28.60;101572.03;5137188;27;801;-41
2021/01/02 09:55:00;;;;;;;;;;;;;;;28.87;28.58;101567.97;5137171;27;827;-35
2021/01/02 09:57:25;;;;;;;;;;;;;;;28.88;28.43;101566.97;5137187;27;897;-35
2021/01/02 09:59:50;;;;;;;;;;;;;;;28.89;28.59;101565.94;5137033;27;783;-35
2021/01/02 10:02:16;;;;;;;;;;;;;;;28.86;28.60;101559.03;5141062;27;778;-35
2021/01/02 10:04:45;;;;;;;;;;;;;;;28.85;28.44;101557.31;5140963;27;1905;-35
2021/01/02 10:07:10;;;;;;;;;;;;;;;28.72;28.45;101547.91;5121664;27;984;-42
2021/01/02 10:09:39;;;;;;;;;;;;;;;28.81;28.42;101537.84;5125937;27;1134;-44
2021/01/02 10:12:04;;;;;;;;;;;;;;;28.76;28.50;101542.94;5140872;27;810;-35
2021/01/02 10:14:30;;;;;;;;;;;;;;;28.80;28.37;101527.22;5140764;27;778;-35
2021/01/02 10:16:55;;;;;;;;;;;;;;;28.80;28.63;101529.91;5141007;27;848;-35
2021/01/02 10:19:21;;;;;;;;;;;;;;;28.85;28.30;101525.66;5140595;27;1153;-35
2021/01/02 10:21:49;;;;;;;;;;;;;;;28.84;28.62;101517.72;5125594;27;941;-35
2021/01/02 10:24:14;;;;;;;;;;;;;;;28.82;28.27;101517.91;5119894;28;1953;-35
2021/01/02 10:26:39;;;;;;;;;;;;;;;28.76;28.68;101518.59;5120170;28;810;-43
2021/01/02 10:29:05;;;;;;;;;;;;;;;28.80;28.38;101514.53;5119827;28;743;-35
2021/01/02 10:31:30;;;;;;;;;;;;;;;28.78;28.31;101513.03;5120205;28;778;-35
2021/01/02 10:33:55;;;;;;;;;;;;;;;28.72;28.70;101511.84;5120017;28;798;-37
2021/01/02 10:36:20;;;;;;;;;;;;;;;28.70;28.55;101506.63;5119469;27;1004;-40
2021/01/02 10:38:46;;;;;;;;;;;;;;;28.76;28.33;101504.22;5120089;28;803;-47
2021/01/02 10:41:14;;;;;;;;;;;;;;;28.76;28.18;101507.75;5119684;28;782;-46
2021/01/02 10:43:39;;;;;;;;;;;;;;;28.79;28.23;101504.72;5119547;28;1902;-35
2021/01/02 10:46:08;;;;;;;;;;;;;;;28.79;28.28;101496.59;5119797;28;763;-35
2021/01/02 10:48:33;;;;;;;;;;;;;;;28.78;28.25;101502.19;5120022;28;815;-36
2021/01/02 10:50:59;;;;;;;;;;;;;;;28.76;28.51;101491.50;5119144;27;1008;-42
2021/01/02 10:53:24;;;;;;;;;;;;;;;28.81;28.15;101499.13;5119689;28;810;-35
2021/01/02 10:55:49;;;;;;;;;;;;;;;28.69;28.18;101493.25;5119480;28;838;-42
2021/01/02 10:58:14;;;;;;;;;;;;;;;28.81;28.08;101493.72;5119695;28;747;-35
2021/01/02 11:00:40;;;;;;;;;;;;;;;28.82;28.07;101498.94;5119064;27;790;-35
2021/01/02 11:03:05;;;;;;;;;;;;;;;28.79;28.19;101496.59;5119486;28;1964;-35
2021/01/02 11:05:30;;;;;;;;;;;;;;;28.83;28.37;101499.78;5118829;27;989;-35
2021/01/02 11:07:56;;;;;;;;;;;;;;;28.73;28.11;101490.00;5119318;28;815;-41
2021/01/02 11:10:22;;;;;;;;;;;;;;;28.70;28.47;101492.22;5131484;27;1094;-35
2021/01/02 11:12:47;;;;;;;;;;;;;;;28.81;28.54;101491.81;5137715;27;1249;-39
2021/01/02 11:15:13;;;;;;;;;;;;;;;28.76;28.00;101486.09;5139490;27;1280;-34
2021/01/02 11:17:39;;;;;;;;;;;;;;;28.85;27.91;101487.75;5139431;27;1272;-35
2021/01/02 11:20:05;;;;;;;;;;;;;;;28.95;27.70;101492.09;5137695;27;1049;-34
2021/01/02 11:22:30;;;;;;;;;;;;;;;28.88;27.84;101496.56;5118876;28;786;-35
2021/01/02 11:24:56;;;;;;;;;;;;;;;28.77;28.06;101490.50;5118830;28;1969;-34
2021/01/02 11:27:21;;;;;;;;;;;;;;;28.79;27.98;101480.34;5118798;28;887;-34
2021/01/02 11:29:46;;;;;;;;;;;;;;;28.73;28.29;101479.19;5118777;28;814;-35
2021/01/02 11:32:12;;;;;;;;;;;;;;;28.81;28.04;101488.31;5119154;28;770;-35
2021/01/02 11:34:37;;;;;;;;;;;;;;;28.83;28.03;101480.81;5118747;28;767;-42
2021/01/02 11:37:03;;;;;;;;;;;;;;;28.72;28.13;101474.81;5118242;27;950;-35
2021/01/02 11:39:28;;;;;;;;;;;;;;;28.77;27.92;101479.69;5118757;27;901;-34
2021/01/02 11:41:53;;;;;;;;;;;;;;;28.70;28.17;101478.69;5118276;28;817;-34
2021/01/02 11:44:20;;;;;;;;;;;;;;;28.80;27.69;101483.88;5118429;28;1985;-34
2021/01/02 11:46:46;;;;;;;;;;;;;;;28.79;27.94;101487.63;5118730;28;862;-43
2021/01/02 11:49:12;;;;;;;;;;;;;;;28.79;27.64;101488.47;5119183;27;1225;-46
2021/01/02 11:51:37;;;;;;;;;;;;;;;28.77;28.02;101479.69;5136192;27;1217;-53
2021/01/02 11:54:03;;;;;;;;;;;;;;;28.81;27.99;101480.19;5139146;27;770;-37
2021/01/02 11:56:28;;;;;;;;;;;;;;;28.52;27.46;101481.63;5139363;27;816;-39
2021/01/02 11:58:54;;;;;;;;;;;;;;;28.24;28.13;101483.72;5138189;27;1189;-48
2021/01/02 12:01:19;;;;;;;;;;;;;;;27.97;28.39;101484.97;5138916;27;1336;-39
2021/01/02 12:03:45;;;;;;;;;;;;;;;28.23;27.56;101483.88;5138361;27;1913;-37
2021/01/02 12:06:10;;;;;;;;;;;;;;;27.86;28.54;101483.47;5127480;27;960;-37
2021/01/02 12:08:35;;;;;;;;;;;;;;;28.15;27.99;101487.47;5118338;27;819;-36
2021/01/02 12:11:01;;;;;;;;;;;;;;;28.71;26.90;101497.47;5135908;27;1111;-43
2021/01/02 12:13:26;;;;;;;;;;;;;;;28.78;26.21;101492.19;5137978;27;786;-37
2021/01/02 12:15:51;;;;;;;;;;;;;;;28.32;27.87;101490.13;5138800;27;797;-37
2021/01/02 12:18:17;;;;;;;;;;;;;;;28.28;27.84;101496.91;5138636;27;805;-37
2021/01/02 12:20:42;;;;;;;;;;;;;;;28.84;26.57;101499.59;5136652;27;1314;-38
2021/01/02 12:23:07;;;;;;;;;;;;;;;27.55;27.43;101495.75;5137742;27;1972;-38
2021/01/02 12:25:33;;;;;;;;;;;;;;;27.15;28.54;101492.81;5138262;27;815;-38
2021/01/02 12:27:58;;;;;;;;;;;;;;;27.58;28.05;101502.66;5137961;27;812;-38
2021/01/02 12:30:27;;;;;;;;;;;;;;;28.04;27.23;101498.66;5138386;27;817;-38
2021/01/02 12:32:52;;;;;;;;;;;;;;;27.63;27.78;101508.41;5138385;27;850;-38
2021/01/02 12:35:18;;;;;;;;;;;;;;;27.53;28.22;101499.66;5137302;27;961;-41
2021/01/02 12:37:43;;;;;;;;;;;;;;;27.13;28.75;101501.09;5138420;27;775;-38
2021/01/02 12:40:08;;;;;;;;;;;;;;;26.88;28.10;101503.69;5138424;27;818;-42
2021/01/02 12:42:37;;;;;;;;;;;;;;;26.90;28.57;101498.97;5137453;27;1370;-43
2021/01/02 12:45:04;;;;;;;;;;;;;;;27.06;29.70;101504.63;5138203;27;1968;-40
2021/01/02 12:47:31;;;;;;;;;;;;;;;27.54;29.36;101504.03;5138382;27;720;-38
2021/01/02 12:49:56;;;;;;;;;;;;;;;27.82;28.09;101510.00;5137305;27;1050;-39
2021/01/02 12:52:21;;;;;;;;;;;;;;;28.49;26.73;101515.31;5137073;27;949;-36